Peden, North Carolina
Current Conditions -  °F | °C
As of 8:15 PM on Tuesday 25 Nov 2014 (Local Time) from KGEV Reporting Station
Scattered Clouds Scattered Clouds  
Wind Chill: 43°   Ceiling: Unl
Heat Index: 43°   Visibility: 10mi
Dew Point: 18°   Wind: 3mph
Humidity: 37%   Direction: 60°ENE
Pressure: 30.05"   Gusts: NA
Location:  36.4835°N, 81.3122°W
Report Text: KGEV 260115Z AUTO 06003KT 10SM SCT120 06/M08 A3005 RMK AO2 T00611077
Loading
Personal Weather Stations






























Interactive Weather Map New forecast layout! Learn more

10-Day Weather Forecast

Advertisements
Track Severe Weather on mobile